createdAt,value
2022-11-04T00:01:40.356Z,11.00
2022-11-04T00:04:07.474Z,11.00
2022-11-04T00:06:34.545Z,11.00
2022-11-04T00:09:01.138Z,11.00
2022-11-04T00:11:46.809Z,11.00
2022-11-04T00:14:13.820Z,11.00
2022-11-04T00:16:59.425Z,11.00
2022-11-04T00:19:26.398Z,11.00
2022-11-04T00:22:11.605Z,10.90
2022-11-04T00:24:57.088Z,10.90
2022-11-04T00:27:42.175Z,10.90
2022-11-04T00:30:10.004Z,10.90
2022-11-04T00:32:55.264Z,10.80
2022-11-04T00:35:22.045Z,10.80
2022-11-04T00:37:48.668Z,10.80
2022-11-04T00:40:15.858Z,10.80
2022-11-04T00:42:46.486Z,10.80
2022-11-04T00:45:13.337Z,10.80
2022-11-04T00:47:39.937Z,10.80
2022-11-04T00:50:07.087Z,10.80
2022-11-04T00:52:33.734Z,10.70
2022-11-04T00:55:00.347Z,10.80
2022-11-04T00:57:27.016Z,10.70
2022-11-04T00:59:53.708Z,10.70
2022-11-04T01:02:20.498Z,10.70
2022-11-04T01:04:47.595Z,10.70
2022-11-04T01:07:14.240Z,10.70
2022-11-04T01:09:40.899Z,10.60
2022-11-04T01:12:07.555Z,10.50
2022-11-04T01:14:34.450Z,10.60
2022-11-04T01:17:01.320Z,10.70
2022-11-04T01:19:27.942Z,10.70
2022-11-04T01:21:54.524Z,10.70
2022-11-04T01:24:21.129Z,10.60
2022-11-04T01:26:47.799Z,10.60
2022-11-04T01:29:14.457Z,10.70
2022-11-04T01:31:41.131Z,10.70
2022-11-04T01:34:09.680Z,10.70
2022-11-04T01:36:36.342Z,10.70
2022-11-04T01:39:03.089Z,10.70
2022-11-04T01:41:31.522Z,10.80
2022-11-04T01:43:59.402Z,10.80
2022-11-04T01:46:32.901Z,10.70
2022-11-04T01:49:04.003Z,10.70
2022-11-04T01:51:32.689Z,10.70
2022-11-04T01:53:59.376Z,10.70
2022-11-04T01:56:26.704Z,10.70
2022-11-04T01:58:54.773Z,10.60
2022-11-04T02:01:21.558Z,10.50
2022-11-04T02:03:56.331Z,10.50
2022-11-04T02:06:23.019Z,10.50
2022-11-04T02:08:49.650Z,10.50
2022-11-04T02:11:36.404Z,10.50
2022-11-04T02:14:03.209Z,10.40
2022-11-04T02:16:43.054Z,10.40
2022-11-04T02:19:18.913Z,10.40
2022-11-04T02:21:48.331Z,10.40
2022-11-04T02:24:27.008Z,10.40
2022-11-04T02:27:08.963Z,10.40
2022-11-04T02:29:38.343Z,10.40
2022-11-04T02:32:16.794Z,10.40
2022-11-04T02:34:52.669Z,10.50
2022-11-04T02:37:25.480Z,10.40
2022-11-04T02:40:03.991Z,10.40
2022-11-04T02:42:48.234Z,10.40
2022-11-04T02:45:19.417Z,10.30
2022-11-04T02:47:49.410Z,10.30
2022-11-04T02:50:25.865Z,10.30
2022-11-04T02:53:03.675Z,10.30
2022-11-04T02:55:33.358Z,10.30
2022-11-04T02:58:01.899Z,10.40
2022-11-04T03:00:29.235Z,10.30
2022-11-04T03:03:01.626Z,10.30
2022-11-04T03:05:30.640Z,10.30
2022-11-04T03:07:59.289Z,10.30
2022-11-04T03:10:29.155Z,10.40
2022-11-04T03:13:02.926Z,10.30
2022-11-04T03:15:31.715Z,10.20
2022-11-04T03:18:03.862Z,10.20
2022-11-04T03:20:31.641Z,10.20
2022-11-04T03:23:00.266Z,10.10
2022-11-04T03:25:29.612Z,10.20
2022-11-04T03:27:57.182Z,10.20
2022-11-04T03:30:24.541Z,10.20
2022-11-04T03:32:53.917Z,10.20
2022-11-04T03:35:20.736Z,10.20
2022-11-04T03:37:48.408Z,10.20
2022-11-04T03:40:15.520Z,10.20
2022-11-04T03:42:45.210Z,10.10
2022-11-04T03:45:12.949Z,10.10
2022-11-04T03:47:39.731Z,10.00
2022-11-04T03:50:06.433Z,10.00
2022-11-04T03:52:33.261Z,9.90
2022-11-04T03:54:59.939Z,9.80
2022-11-04T03:57:44.024Z,9.70
2022-11-04T04:00:10.783Z,9.70
2022-11-04T04:02:37.426Z,9.70
2022-11-04T04:05:14.561Z,9.70
2022-11-04T04:07:46.445Z,9.60
2022-11-04T04:10:31.880Z,9.60
2022-11-04T04:13:00.457Z,9.60
2022-11-04T04:15:29.297Z,9.60
2022-11-04T04:17:59.166Z,9.70
2022-11-04T04:20:27.203Z,9.60
2022-11-04T04:23:38.526Z,9.60
2022-11-04T04:26:25.660Z,9.60
2022-11-04T04:28:53.427Z,9.60
2022-11-04T04:31:39.235Z,9.50
2022-11-04T04:34:06.425Z,9.50
2022-11-04T04:36:34.941Z,9.20
2022-11-04T04:39:23.652Z,9.40
2022-11-04T04:42:08.953Z,9.40
2022-11-04T04:44:54.348Z,9.40
2022-11-04T04:47:22.612Z,9.40
2022-11-04T04:49:50.108Z,9.40
2022-11-04T04:52:16.824Z,9.30
2022-11-04T04:54:44.981Z,9.30
2022-11-04T04:57:11.833Z,9.30
2022-11-04T04:59:38.463Z,9.20
2022-11-04T05:02:05.215Z,9.20
2022-11-04T05:04:31.895Z,9.10
2022-11-04T05:06:58.498Z,9.00
2022-11-04T05:09:25.148Z,9.10
2022-11-04T05:11:51.849Z,9.10
2022-11-04T05:14:18.514Z,9.00
2022-11-04T05:16:45.290Z,9.00
2022-11-04T05:19:11.912Z,9.00
2022-11-04T05:21:38.539Z,9.00
2022-11-04T05:24:05.241Z,9.00
2022-11-04T05:26:31.831Z,9.00
2022-11-04T05:28:58.876Z,9.00
2022-11-04T05:31:25.509Z,8.80
2022-11-04T05:33:52.127Z,8.80
2022-11-04T05:36:18.763Z,8.80
2022-11-04T05:38:50.006Z,8.70
2022-11-04T05:41:25.910Z,8.70
2022-11-04T05:43:53.329Z,8.60
2022-11-04T05:46:19.993Z,8.60
2022-11-04T05:48:46.748Z,8.50
2022-11-04T05:51:16.743Z,8.50
2022-11-04T05:53:43.730Z,8.40
2022-11-04T05:56:10.454Z,8.40
2022-11-04T05:58:37.156Z,8.40
2022-11-04T06:01:12.839Z,8.40
2022-11-04T06:03:39.620Z,8.30
2022-11-04T06:06:06.289Z,8.40
2022-11-04T06:08:33.131Z,8.30
2022-11-04T06:10:59.745Z,8.40
2022-11-04T06:13:26.338Z,8.30
2022-11-04T06:15:52.960Z,8.30
2022-11-04T06:18:19.601Z,8.30
2022-11-04T06:20:46.588Z,8.20
2022-11-04T06:23:13.241Z,8.20
2022-11-04T06:25:39.863Z,8.10
2022-11-04T06:28:06.785Z,8.10
2022-11-04T06:30:33.709Z,8.10
2022-11-04T06:33:00.432Z,8.10
2022-11-04T06:35:27.012Z,8.10
2022-11-04T06:37:54.933Z,8.10
2022-11-04T06:40:21.590Z,8.10
2022-11-04T06:42:49.266Z,8.10
2022-11-04T06:45:15.942Z,8.10
2022-11-04T06:47:42.637Z,8.00
2022-11-04T06:50:09.628Z,8.10
2022-11-04T06:52:41.949Z,8.10
2022-11-04T06:55:09.555Z,8.10
2022-11-04T06:57:36.158Z,8.10
2022-11-04T07:00:03.130Z,8.10
2022-11-04T07:02:29.912Z,8.10
2022-11-04T07:07:24.377Z,8.10
2022-11-04T07:09:50.976Z,8.10
2022-11-04T07:12:17.595Z,8.20
2022-11-04T07:14:44.303Z,8.20
2022-11-04T07:17:10.894Z,8.20
2022-11-04T07:19:37.582Z,8.20
2022-11-04T07:22:04.257Z,8.30
2022-11-04T07:24:30.938Z,8.30
2022-11-04T07:26:57.646Z,8.40
2022-11-04T07:29:25.484Z,8.40
2022-11-04T07:31:52.128Z,8.50
2022-11-04T07:34:18.859Z,8.60
2022-11-04T07:36:45.702Z,8.60
2022-11-04T07:39:12.451Z,8.70
2022-11-04T07:41:39.138Z,8.80
2022-11-04T07:44:05.826Z,8.70
2022-11-04T07:46:32.912Z,8.70
2022-11-04T07:48:59.581Z,8.80
2022-11-04T07:51:26.928Z,8.80
2022-11-04T07:53:55.501Z,8.90
2022-11-04T07:56:24.026Z,8.90
2022-11-04T07:58:50.796Z,9.00
2022-11-04T08:01:18.929Z,9.00
2022-11-04T08:03:46.151Z,9.10
2022-11-04T08:06:14.614Z,9.20
2022-11-04T08:08:43.385Z,9.10
2022-11-04T08:11:17.037Z,9.30
2022-11-04T08:13:45.156Z,9.30
2022-11-04T08:16:13.580Z,9.40
2022-11-04T08:18:40.624Z,9.50
2022-11-04T08:21:07.555Z,9.50
2022-11-04T08:23:34.517Z,9.50
2022-11-04T08:26:01.200Z,9.60
2022-11-04T08:28:29.495Z,9.70
2022-11-04T08:30:56.276Z,9.80
2022-11-04T08:33:23.909Z,9.90
2022-11-04T08:35:50.622Z,10.00
2022-11-04T08:38:17.620Z,10.10
2022-11-04T08:40:44.307Z,10.30
2022-11-04T08:43:11.482Z,10.30
2022-11-04T08:45:39.168Z,10.40
2022-11-04T08:48:06.064Z,10.40
2022-11-04T08:50:32.756Z,10.50
2022-11-04T08:52:59.401Z,10.60
2022-11-04T08:55:28.427Z,10.80
2022-11-04T08:57:55.252Z,10.90
2022-11-04T09:00:21.950Z,11.00
2022-11-04T09:02:48.638Z,11.00
2022-11-04T09:05:15.286Z,11.20
2022-11-04T09:07:42.893Z,11.30
2022-11-04T09:10:10.145Z,11.40
2022-11-04T09:12:36.933Z,11.40
2022-11-04T09:15:05.563Z,11.40
2022-11-04T09:17:32.221Z,11.40
2022-11-04T09:19:58.874Z,11.40
2022-11-04T09:22:25.527Z,11.50
2022-11-04T09:24:52.197Z,11.50
2022-11-04T09:27:18.920Z,11.60
2022-11-04T09:29:46.181Z,11.80
2022-11-04T09:32:12.999Z,12.00
2022-11-04T09:34:39.674Z,12.10
2022-11-04T09:37:06.327Z,12.30
2022-11-04T09:39:32.993Z,12.40
2022-11-04T09:42:01.091Z,12.60
2022-11-04T09:44:59.777Z,12.50
2022-11-04T09:47:25.864Z,12.50
2022-11-04T09:49:55.171Z,12.60
2022-11-04T09:52:24.417Z,12.60
2022-11-04T09:54:55.048Z,12.60
2022-11-04T09:57:21.747Z,12.80
2022-11-04T09:59:49.026Z,12.70
2022-11-04T10:02:45.060Z,12.70
2022-11-04T10:05:14.591Z,12.60
2022-11-04T10:07:45.931Z,12.70
2022-11-04T10:10:18.601Z,12.90
2022-11-04T10:12:45.187Z,13.20
2022-11-04T10:15:30.714Z,13.30
2022-11-04T10:18:03.260Z,13.70
2022-11-04T10:20:43.622Z,13.70
2022-11-04T10:23:26.966Z,13.50
2022-11-04T10:26:10.867Z,13.60
2022-11-04T10:28:57.845Z,13.80
2022-11-04T10:31:25.016Z,14.00
2022-11-04T10:33:56.239Z,14.20
2022-11-04T10:36:23.154Z,14.20
2022-11-04T10:38:56.253Z,14.40
2022-11-04T10:41:38.716Z,14.30
2022-11-04T10:44:16.718Z,14.30
2022-11-04T10:46:43.314Z,14.30
2022-11-04T10:49:26.280Z,14.50
2022-11-04T10:51:54.011Z,14.60
2022-11-04T10:54:21.243Z,15.00
2022-11-04T10:56:51.019Z,15.30
2022-11-04T10:59:22.164Z,15.40
2022-11-04T11:01:51.363Z,15.60
2022-11-04T11:04:29.219Z,15.80
2022-11-04T11:06:57.169Z,16.00
2022-11-04T11:09:31.220Z,15.90
2022-11-04T11:12:29.573Z,15.70
2022-11-04T11:14:53.489Z,15.80
2022-11-04T11:17:20.182Z,15.80
2022-11-04T11:19:58.031Z,15.70
2022-11-04T11:22:31.749Z,15.40
2022-11-04T11:25:24.578Z,15.20
2022-11-04T11:27:51.209Z,14.90
2022-11-04T11:30:28.891Z,15.00
2022-11-04T11:33:00.420Z,15.00
2022-11-04T11:35:31.255Z,15.00
2022-11-04T11:37:58.668Z,15.00
2022-11-04T11:40:31.646Z,15.00
2022-11-04T11:43:00.252Z,14.90
2022-11-04T11:45:27.804Z,14.80
2022-11-04T11:47:57.466Z,14.80
2022-11-04T11:50:37.012Z,14.60
2022-11-04T11:53:14.765Z,14.50
2022-11-04T11:55:47.956Z,14.50
2022-11-04T12:01:24.128Z,14.50
2022-11-04T12:09:48.790Z,14.40
2022-11-04T12:12:18.169Z,14.70
2022-11-04T12:14:48.730Z,14.70
2022-11-04T12:17:27.859Z,14.70
2022-11-04T12:20:11.666Z,14.70
2022-11-04T12:22:43.808Z,14.80
2022-11-04T12:25:21.858Z,14.80
2022-11-04T12:27:57.804Z,14.90
2022-11-04T12:30:31.180Z,14.90
2022-11-04T12:33:00.565Z,14.70
2022-11-04T12:35:40.366Z,14.60
2022-11-04T12:38:15.656Z,14.60
2022-11-04T12:41:05.104Z,14.40
2022-11-04T12:43:35.677Z,14.20
2022-11-04T12:46:13.027Z,14.20
2022-11-04T12:49:04.454Z,14.20
2022-11-04T12:51:42.570Z,14.40
2022-11-04T12:54:28.079Z,14.20
2022-11-04T12:57:00.914Z,14.10
2022-11-04T12:59:40.489Z,14.10
2022-11-04T13:02:26.029Z,14.10
2022-11-04T13:04:59.351Z,14.10
2022-11-04T13:07:46.227Z,14.20
2022-11-04T13:10:18.922Z,14.20
2022-11-04T13:12:47.380Z,14.30
2022-11-04T13:15:17.169Z,14.30
2022-11-04T13:17:45.003Z,14.30
2022-11-04T13:20:14.714Z,14.40
2022-11-04T13:22:43.823Z,14.40
2022-11-04T13:25:11.098Z,14.40
2022-11-04T13:27:39.402Z,14.40
2022-11-04T13:30:25.702Z,14.20
2022-11-04T13:32:58.841Z,14.20
2022-11-04T13:35:25.459Z,14.30
2022-11-04T13:37:57.966Z,14.40
2022-11-04T13:40:31.483Z,14.40
2022-11-04T13:43:35.629Z,14.50
2022-11-04T13:46:02.764Z,14.40
2022-11-04T13:48:30.619Z,14.40
2022-11-04T13:50:57.349Z,14.30
2022-11-04T13:53:40.135Z,14.10
2022-11-04T13:56:31.521Z,14.10
2022-11-04T13:58:55.937Z,14.10
2022-11-04T14:01:23.452Z,14.10
2022-11-04T14:03:54.958Z,14.00
2022-11-04T14:06:40.484Z,14.10
2022-11-04T14:09:33.556Z,14.00
2022-11-04T14:12:17.058Z,13.90
2022-11-04T14:14:43.711Z,13.90
2022-11-04T14:17:28.939Z,13.90
2022-11-04T14:20:14.177Z,13.90
2022-11-04T14:22:43.844Z,13.90
2022-11-04T14:25:29.349Z,13.90
2022-11-04T14:28:16.325Z,13.90
2022-11-04T14:30:44.246Z,13.80
2022-11-04T14:33:20.048Z,13.80
2022-11-04T14:35:46.706Z,13.80
2022-11-04T14:38:32.861Z,13.70
2022-11-04T14:41:19.706Z,13.70
2022-11-04T14:43:46.911Z,13.70
2022-11-04T14:46:18.533Z,13.70
2022-11-04T14:48:51.848Z,13.70
2022-11-04T14:51:26.851Z,13.60
2022-11-04T14:54:04.683Z,13.50
2022-11-04T14:56:31.340Z,13.60
2022-11-04T14:59:02.031Z,13.60
2022-11-04T15:01:34.655Z,13.50
2022-11-04T15:04:21.512Z,13.50
2022-11-04T15:06:58.530Z,13.40
2022-11-04T15:09:39.902Z,13.40
2022-11-04T15:12:29.779Z,13.30
2022-11-04T15:14:56.875Z,13.30
2022-11-04T15:17:26.643Z,13.20
2022-11-04T15:19:54.981Z,13.10
2022-11-04T15:22:22.229Z,13.10
2022-11-04T15:24:50.946Z,12.90
2022-11-04T15:27:18.693Z,12.90
2022-11-04T15:29:59.125Z,12.70
2022-11-04T15:32:26.368Z,12.60
2022-11-04T15:34:53.894Z,12.50
2022-11-04T15:37:22.007Z,12.40
2022-11-04T15:39:50.938Z,12.30
2022-11-04T15:42:38.756Z,12.10
2022-11-04T15:45:23.703Z,12.00
2022-11-04T15:48:10.278Z,11.90
2022-11-04T15:50:37.428Z,11.80
2022-11-04T15:53:09.086Z,11.80
2022-11-04T15:55:37.329Z,11.60
2022-11-04T15:58:04.013Z,11.60
2022-11-04T16:00:30.737Z,11.50
2022-11-04T16:02:58.644Z,11.50
2022-11-04T16:05:27.524Z,11.40
2022-11-04T16:07:56.300Z,11.30
2022-11-04T16:10:30.655Z,11.20
2022-11-04T16:12:58.579Z,11.10
2022-11-04T16:15:34.462Z,11.10
2022-11-04T16:18:01.795Z,11.00
2022-11-04T16:20:30.615Z,10.90
2022-11-04T16:23:01.278Z,10.90
2022-11-04T16:25:31.111Z,10.80
2022-11-04T16:27:59.545Z,10.80
2022-11-04T16:30:27.691Z,10.70
2022-11-04T16:32:55.925Z,10.70
2022-11-04T16:35:26.619Z,10.60
2022-11-04T16:37:54.113Z,10.60
2022-11-04T16:40:21.785Z,10.50
2022-11-04T16:42:50.396Z,10.40
2022-11-04T16:45:20.324Z,10.40
2022-11-04T16:47:47.112Z,10.40
2022-11-04T16:50:15.716Z,10.40
2022-11-04T16:52:44.321Z,10.40
2022-11-04T16:55:12.029Z,10.40
2022-11-04T16:57:39.058Z,10.30
2022-11-04T17:00:08.853Z,10.30
2022-11-04T17:02:41.084Z,10.30
2022-11-04T17:05:08.714Z,10.20
2022-11-04T17:07:52.263Z,10.10
2022-11-04T17:10:22.455Z,10.10
2022-11-04T17:12:49.236Z,10.10
2022-11-04T17:15:16.424Z,9.90
2022-11-04T17:17:43.126Z,9.90
2022-11-04T17:20:14.649Z,9.80
2022-11-04T17:22:41.682Z,9.80
2022-11-04T17:25:15.879Z,9.70
2022-11-04T17:27:42.575Z,9.70
2022-11-04T17:30:09.472Z,9.60
2022-11-04T17:32:36.049Z,9.70
2022-11-04T17:35:02.648Z,9.70
2022-11-04T17:37:29.335Z,9.60
2022-11-04T17:39:55.962Z,9.70
2022-11-04T17:42:41.021Z,9.70
2022-11-04T17:45:08.229Z,9.70
2022-11-04T17:47:35.392Z,9.70
2022-11-04T17:50:03.129Z,9.70
2022-11-04T17:52:29.749Z,9.70
2022-11-04T17:54:56.451Z,9.80
2022-11-04T17:57:23.128Z,9.70
2022-11-04T17:59:49.903Z,9.80
2022-11-04T18:02:16.904Z,9.70
2022-11-04T18:04:45.007Z,9.80
2022-11-04T18:07:11.687Z,9.80
2022-11-04T18:09:39.396Z,9.80
2022-11-04T18:12:25.513Z,9.70
2022-11-04T18:14:52.176Z,9.70
2022-11-04T18:17:18.988Z,9.70
2022-11-04T18:19:45.834Z,9.70
2022-11-04T18:22:12.476Z,9.70
2022-11-04T18:24:39.156Z,9.70
2022-11-04T18:27:05.773Z,9.70
2022-11-04T18:29:32.478Z,9.60
2022-11-04T18:31:59.130Z,9.60
2022-11-04T18:34:25.771Z,9.60
2022-11-04T18:36:52.374Z,9.60
2022-11-04T18:39:19.204Z,9.60
2022-11-04T18:41:46.120Z,9.60
2022-11-04T18:44:15.210Z,9.60
2022-11-04T18:46:42.231Z,9.60
2022-11-04T18:49:09.411Z,9.70
2022-11-04T18:51:36.086Z,9.70
2022-11-04T18:54:06.977Z,9.70
2022-11-04T18:56:33.985Z,9.60
2022-11-04T18:59:01.304Z,9.70
2022-11-04T19:01:29.342Z,9.60
2022-11-04T19:03:56.173Z,9.60
2022-11-04T19:06:26.949Z,9.70
2022-11-04T19:09:05.108Z,9.70
2022-11-04T19:11:41.210Z,9.70
2022-11-04T19:14:09.658Z,9.70
2022-11-04T19:16:36.859Z,9.70
2022-11-04T19:19:04.693Z,9.70
2022-11-04T19:21:31.368Z,9.70
2022-11-04T19:23:59.963Z,9.70
2022-11-04T19:26:28.179Z,9.60
2022-11-04T19:28:55.402Z,9.60
2022-11-04T19:31:23.987Z,9.60
2022-11-04T19:33:51.514Z,9.60
2022-11-04T19:36:19.616Z,9.60
2022-11-04T19:38:46.362Z,9.60
2022-11-04T19:41:32.707Z,9.60
2022-11-04T19:44:01.126Z,9.70
2022-11-04T19:46:27.889Z,9.60
2022-11-04T19:48:55.711Z,9.60
2022-11-04T19:51:23.887Z,9.60
2022-11-04T19:53:52.535Z,9.70
2022-11-04T19:56:19.952Z,9.70
2022-11-04T19:58:46.675Z,9.60
2022-11-04T20:01:13.936Z,9.60
2022-11-04T20:03:41.011Z,9.60
2022-11-04T20:06:08.662Z,9.60
2022-11-04T20:08:35.733Z,9.60
2022-11-04T20:11:03.486Z,9.60
2022-11-04T20:13:47.245Z,9.60
2022-11-04T20:16:14.029Z,9.50
2022-11-04T20:18:40.687Z,9.50
2022-11-04T20:21:07.287Z,9.40
2022-11-04T20:23:33.948Z,9.40
2022-11-04T20:26:16.224Z,9.40
2022-11-04T20:28:46.237Z,9.30
2022-11-04T20:31:14.725Z,9.20
2022-11-04T20:33:41.489Z,9.20
2022-11-04T20:36:08.296Z,9.20
2022-11-04T20:38:34.957Z,9.20
2022-11-04T20:41:09.066Z,9.10
2022-11-04T20:43:36.437Z,9.10
2022-11-04T20:46:07.125Z,9.10
2022-11-04T20:48:35.877Z,9.00
2022-11-04T20:51:06.190Z,9.00
2022-11-04T20:53:33.005Z,9.00
2022-11-04T20:56:00.012Z,8.90
2022-11-04T20:58:26.652Z,8.90
2022-11-04T21:00:53.461Z,8.90
2022-11-04T21:03:20.224Z,8.80
2022-11-04T21:05:46.824Z,8.70
2022-11-04T21:08:13.519Z,8.60
2022-11-04T21:10:40.199Z,8.60
2022-11-04T21:13:06.823Z,8.50
2022-11-04T21:15:42.487Z,8.40
2022-11-04T21:18:10.005Z,8.40
2022-11-04T21:20:41.896Z,8.30
2022-11-04T21:23:09.778Z,8.30
2022-11-04T21:25:43.849Z,8.30
2022-11-04T21:28:11.514Z,8.30
2022-11-04T21:30:39.194Z,8.30
2022-11-04T21:33:06.133Z,8.20
2022-11-04T21:35:36.077Z,8.20
2022-11-04T21:38:03.518Z,8.20
2022-11-04T21:40:30.367Z,8.20
2022-11-04T21:42:57.232Z,8.10
2022-11-04T21:45:24.178Z,8.20
2022-11-04T21:47:50.978Z,8.10
2022-11-04T21:50:18.341Z,8.10
2022-11-04T21:52:45.500Z,8.10
2022-11-04T21:55:12.579Z,8.10
2022-11-04T21:57:39.421Z,8.00
2022-11-04T22:00:07.394Z,8.00
2022-11-04T22:02:38.876Z,8.10
2022-11-04T22:05:06.087Z,8.10
2022-11-04T22:07:51.534Z,8.10
2022-11-04T22:10:18.170Z,8.10
2022-11-04T22:12:50.078Z,8.10
2022-11-04T22:15:36.920Z,8.10
2022-11-04T22:18:03.785Z,8.10
2022-11-04T22:20:30.466Z,8.20
2022-11-04T22:22:57.072Z,8.10
2022-11-04T22:25:23.899Z,8.20
2022-11-04T22:27:50.563Z,8.20
2022-11-04T22:30:17.280Z,8.20
2022-11-04T22:32:43.963Z,8.20
2022-11-04T22:35:10.786Z,8.20
2022-11-04T22:37:37.440Z,8.20
2022-11-04T22:40:04.272Z,8.20
2022-11-04T22:42:30.911Z,8.20
2022-11-04T22:44:57.567Z,8.10
2022-11-04T22:47:26.170Z,8.10
2022-11-04T22:49:52.797Z,8.10
2022-11-04T22:52:19.396Z,8.10
2022-11-04T22:54:46.049Z,8.10
2022-11-04T22:57:12.671Z,8.20
2022-11-04T22:59:39.617Z,8.10
2022-11-04T23:02:06.431Z,8.20
2022-11-04T23:04:33.261Z,8.20
2022-11-04T23:06:59.990Z,8.20
2022-11-04T23:09:26.598Z,8.20
2022-11-04T23:12:11.663Z,8.20
2022-11-04T23:14:57.015Z,8.10
2022-11-04T23:17:42.126Z,8.20
2022-11-04T23:20:10.978Z,8.30
2022-11-04T23:22:56.586Z,8.30
2022-11-04T23:25:23.778Z,8.30
2022-11-04T23:28:09.863Z,8.30
2022-11-04T23:30:37.763Z,8.40
2022-11-04T23:33:05.810Z,8.40
2022-11-04T23:35:52.425Z,8.50
2022-11-04T23:38:19.340Z,8.40
2022-11-04T23:41:05.427Z,8.60
2022-11-04T23:43:32.127Z,8.60
2022-11-04T23:46:17.377Z,8.60
2022-11-04T23:49:02.865Z,8.60
2022-11-04T23:51:48.060Z,8.70
2022-11-04T23:54:33.573Z,8.70
2022-11-04T23:57:18.723Z,8.80
